sensor_id;sensor_type;location;lat;lon;timestamp;P1;durP1;ratioP1;P2;durP2;ratioP2
52742;SDS011;55583;53.012;6.556;2022-11-20T00:00:46;42.42;;;21.92;;
52742;SDS011;55583;53.012;6.556;2022-11-20T00:03:12;46.78;;;22.40;;
52742;SDS011;55583;53.012;6.556;2022-11-20T00:05:38;43.97;;;22.25;;
52742;SDS011;55583;53.012;6.556;2022-11-20T00:08:04;40.78;;;21.73;;
52742;SDS011;55583;53.012;6.556;2022-11-20T00:10:30;43.95;;;22.80;;
52742;SDS011;55583;53.012;6.556;2022-11-20T00:12:57;37.65;;;21.13;;
52742;SDS011;55583;53.012;6.556;2022-11-20T00:15:23;44.42;;;21.75;;
52742;SDS011;55583;53.012;6.556;2022-11-20T00:17:49;42.15;;;22.17;;
52742;SDS011;55583;53.012;6.556;2022-11-20T00:20:15;36.35;;;18.95;;
52742;SDS011;55583;53.012;6.556;2022-11-20T00:22:40;39.00;;;19.63;;
52742;SDS011;55583;53.012;6.556;2022-11-20T00:25:06;43.17;;;19.95;;
52742;SDS011;55583;53.012;6.556;2022-11-20T00:27:32;40.70;;;19.65;;
52742;SDS011;55583;53.012;6.556;2022-11-20T00:29:57;43.50;;;21.02;;
52742;SDS011;55583;53.012;6.556;2022-11-20T00:32:23;36.58;;;18.35;;
52742;SDS011;55583;53.012;6.556;2022-11-20T00:34:49;36.50;;;19.58;;
52742;SDS011;55583;53.012;6.556;2022-11-20T00:37:14;34.72;;;18.63;;
52742;SDS011;55583;53.012;6.556;2022-11-20T00:39:40;36.00;;;18.63;;
52742;SDS011;55583;53.012;6.556;2022-11-20T00:42:06;39.20;;;19.35;;
52742;SDS011;55583;53.012;6.556;2022-11-20T00:44:31;36.00;;;18.73;;
52742;SDS011;55583;53.012;6.556;2022-11-20T00:46:57;45.63;;;19.90;;
52742;SDS011;55583;53.012;6.556;2022-11-20T00:49:22;34.42;;;18.20;;
52742;SDS011;55583;53.012;6.556;2022-11-20T00:51:48;42.72;;;18.38;;
52742;SDS011;55583;53.012;6.556;2022-11-20T00:54:13;33.95;;;17.38;;
52742;SDS011;55583;53.012;6.556;2022-11-20T00:56:39;37.88;;;18.80;;
52742;SDS011;55583;53.012;6.556;2022-11-20T00:59:05;33.60;;;17.65;;
52742;SDS011;55583;53.012;6.556;2022-11-20T01:01:30;36.72;;;18.70;;
52742;SDS011;55583;53.012;6.556;2022-11-20T01:03:57;34.42;;;17.70;;
52742;SDS011;55583;53.012;6.556;2022-11-20T01:06:25;33.28;;;16.95;;
52742;SDS011;55583;53.012;6.556;2022-11-20T01:08:53;34.72;;;18.10;;
52742;SDS011;55583;53.012;6.556;2022-11-20T01:11:25;37.40;;;18.60;;
52742;SDS011;55583;53.012;6.556;2022-11-20T01:13:52;35.08;;;18.98;;
52742;SDS011;55583;53.012;6.556;2022-11-20T01:18:47;43.05;;;19.02;;
52742;SDS011;55583;53.012;6.556;2022-11-20T01:21:15;37.10;;;19.58;;
52742;SDS011;55583;53.012;6.556;2022-11-20T01:23:43;32.95;;;17.85;;
52742;SDS011;55583;53.012;6.556;2022-11-20T01:26:10;38.33;;;18.98;;
52742;SDS011;55583;53.012;6.556;2022-11-20T01:28:38;34.15;;;17.52;;
52742;SDS011;55583;53.012;6.556;2022-11-20T01:31:15;37.00;;;19.00;;
52742;SDS011;55583;53.012;6.556;2022-11-20T01:33:49;35.85;;;18.77;;
52742;SDS011;55583;53.012;6.556;2022-11-20T01:36:17;35.53;;;17.38;;
52742;SDS011;55583;53.012;6.556;2022-11-20T01:38:44;30.95;;;16.60;;
52742;SDS011;55583;53.012;6.556;2022-11-20T01:41:11;35.47;;;17.42;;
52742;SDS011;55583;53.012;6.556;2022-11-20T01:43:58;32.72;;;17.60;;
52742;SDS011;55583;53.012;6.556;2022-11-20T01:46:24;32.75;;;18.13;;
52742;SDS011;55583;53.012;6.556;2022-11-20T01:48:51;35.40;;;16.70;;
52742;SDS011;55583;53.012;6.556;2022-11-20T01:54:00;30.13;;;16.20;;
52742;SDS011;55583;53.012;6.556;2022-11-20T01:56:30;32.05;;;15.65;;
52742;SDS011;55583;53.012;6.556;2022-11-20T01:58:59;34.00;;;16.63;;
52742;SDS011;55583;53.012;6.556;2022-11-20T02:01:26;30.00;;;15.80;;
52742;SDS011;55583;53.012;6.556;2022-11-20T02:03:52;31.65;;;16.50;;
52742;SDS011;55583;53.012;6.556;2022-11-20T02:06:20;38.88;;;16.63;;
52742;SDS011;55583;53.012;6.556;2022-11-20T02:08:52;32.08;;;18.17;;
52742;SDS011;55583;53.012;6.556;2022-11-20T02:11:19;28.42;;;15.38;;
52742;SDS011;55583;53.012;6.556;2022-11-20T02:13:45;33.53;;;16.95;;
52742;SDS011;55583;53.012;6.556;2022-11-20T02:18:46;32.92;;;16.48;;
52742;SDS011;55583;53.012;6.556;2022-11-20T02:24:15;34.63;;;17.08;;
52742;SDS011;55583;53.012;6.556;2022-11-20T02:26:54;31.33;;;16.55;;
52742;SDS011;55583;53.012;6.556;2022-11-20T02:29:25;31.75;;;16.73;;
52742;SDS011;55583;53.012;6.556;2022-11-20T02:31:55;29.80;;;16.05;;
52742;SDS011;55583;53.012;6.556;2022-11-20T02:34:24;31.65;;;16.40;;
52742;SDS011;55583;53.012;6.556;2022-11-20T02:36:50;30.65;;;16.25;;
52742;SDS011;55583;53.012;6.556;2022-11-20T02:39:17;29.25;;;16.38;;
52742;SDS011;55583;53.012;6.556;2022-11-20T02:41:44;36.65;;;16.25;;
52742;SDS011;55583;53.012;6.556;2022-11-20T02:44:09;28.98;;;16.00;;
52742;SDS011;55583;53.012;6.556;2022-11-20T02:46:35;32.92;;;17.88;;
52742;SDS011;55583;53.012;6.556;2022-11-20T02:49:04;33.25;;;17.55;;
52742;SDS011;55583;53.012;6.556;2022-11-20T02:51:30;31.88;;;17.90;;
52742;SDS011;55583;53.012;6.556;2022-11-20T02:53:57;28.35;;;15.23;;
52742;SDS011;55583;53.012;6.556;2022-11-20T02:56:22;28.83;;;15.80;;
52742;SDS011;55583;53.012;6.556;2022-11-20T02:58:49;29.40;;;15.73;;
52742;SDS011;55583;53.012;6.556;2022-11-20T03:01:14;31.00;;;15.40;;
52742;SDS011;55583;53.012;6.556;2022-11-20T03:03:40;30.80;;;17.40;;
52742;SDS011;55583;53.012;6.556;2022-11-20T03:06:06;29.92;;;15.80;;
52742;SDS011;55583;53.012;6.556;2022-11-20T03:08:32;31.27;;;17.15;;
52742;SDS011;55583;53.012;6.556;2022-11-20T03:11:01;29.90;;;16.58;;
52742;SDS011;55583;53.012;6.556;2022-11-20T03:13:28;29.90;;;16.08;;
52742;SDS011;55583;53.012;6.556;2022-11-20T03:15:53;26.15;;;16.60;;
52742;SDS011;55583;53.012;6.556;2022-11-20T03:18:19;30.00;;;15.70;;
52742;SDS011;55583;53.012;6.556;2022-11-20T03:20:45;24.17;;;14.70;;
52742;SDS011;55583;53.012;6.556;2022-11-20T03:23:10;26.92;;;15.25;;
52742;SDS011;55583;53.012;6.556;2022-11-20T03:25:36;26.88;;;15.05;;
52742;SDS011;55583;53.012;6.556;2022-11-20T03:28:01;28.50;;;15.43;;
52742;SDS011;55583;53.012;6.556;2022-11-20T03:30:27;27.48;;;15.30;;
52742;SDS011;55583;53.012;6.556;2022-11-20T03:32:53;25.23;;;15.20;;
52742;SDS011;55583;53.012;6.556;2022-11-20T03:35:19;28.40;;;16.27;;
52742;SDS011;55583;53.012;6.556;2022-11-20T03:37:45;27.88;;;14.88;;
52742;SDS011;55583;53.012;6.556;2022-11-20T03:40:11;31.52;;;16.27;;
52742;SDS011;55583;53.012;6.556;2022-11-20T03:42:36;27.88;;;15.20;;
52742;SDS011;55583;53.012;6.556;2022-11-20T03:45:11;29.48;;;15.45;;
52742;SDS011;55583;53.012;6.556;2022-11-20T03:47:38;28.17;;;15.60;;
52742;SDS011;55583;53.012;6.556;2022-11-20T03:50:04;27.33;;;14.68;;
52742;SDS011;55583;53.012;6.556;2022-11-20T03:52:30;24.98;;;15.52;;
52742;SDS011;55583;53.012;6.556;2022-11-20T03:54:55;25.38;;;14.05;;
52742;SDS011;55583;53.012;6.556;2022-11-20T03:57:21;27.40;;;15.57;;
52742;SDS011;55583;53.012;6.556;2022-11-20T03:59:47;27.90;;;14.50;;
52742;SDS011;55583;53.012;6.556;2022-11-20T04:02:13;30.27;;;15.38;;
52742;SDS011;55583;53.012;6.556;2022-11-20T04:04:38;27.23;;;16.02;;
52742;SDS011;55583;53.012;6.556;2022-11-20T04:07:04;24.25;;;14.80;;
52742;SDS011;55583;53.012;6.556;2022-11-20T04:09:29;27.77;;;15.50;;
52742;SDS011;55583;53.012;6.556;2022-11-20T04:11:55;28.48;;;15.13;;
52742;SDS011;55583;53.012;6.556;2022-11-20T04:14:21;24.40;;;14.85;;
52742;SDS011;55583;53.012;6.556;2022-11-20T04:16:46;25.50;;;14.68;;
52742;SDS011;55583;53.012;6.556;2022-11-20T04:19:13;31.20;;;16.52;;
52742;SDS011;55583;53.012;6.556;2022-11-20T04:21:40;26.75;;;16.42;;
52742;SDS011;55583;53.012;6.556;2022-11-20T04:24:07;28.63;;;15.75;;
52742;SDS011;55583;53.012;6.556;2022-11-20T04:26:33;31.67;;;16.17;;
52742;SDS011;55583;53.012;6.556;2022-11-20T04:28:59;26.95;;;17.25;;
52742;SDS011;55583;53.012;6.556;2022-11-20T04:31:31;26.67;;;15.45;;
52742;SDS011;55583;53.012;6.556;2022-11-20T04:34:02;30.08;;;16.92;;
52742;SDS011;55583;53.012;6.556;2022-11-20T04:36:29;29.67;;;14.65;;
52742;SDS011;55583;53.012;6.556;2022-11-20T04:38:56;24.17;;;14.23;;
52742;SDS011;55583;53.012;6.556;2022-11-20T04:41:24;24.67;;;14.20;;
52742;SDS011;55583;53.012;6.556;2022-11-20T04:43:52;28.48;;;15.60;;
52742;SDS011;55583;53.012;6.556;2022-11-20T04:46:24;25.90;;;14.10;;
52742;SDS011;55583;53.012;6.556;2022-11-20T04:48:50;24.90;;;15.15;;
52742;SDS011;55583;53.012;6.556;2022-11-20T04:51:16;25.88;;;14.98;;
52742;SDS011;55583;53.012;6.556;2022-11-20T04:53:42;26.75;;;13.93;;
52742;SDS011;55583;53.012;6.556;2022-11-20T04:56:08;25.75;;;15.13;;
52742;SDS011;55583;53.012;6.556;2022-11-20T04:58:36;26.48;;;14.40;;
52742;SDS011;55583;53.012;6.556;2022-11-20T05:01:03;25.08;;;14.10;;
52742;SDS011;55583;53.012;6.556;2022-11-20T05:03:34;25.00;;;14.80;;
52742;SDS011;55583;53.012;6.556;2022-11-20T05:06:00;25.25;;;14.02;;
52742;SDS011;55583;53.012;6.556;2022-11-20T05:08:30;25.05;;;13.15;;
52742;SDS011;55583;53.012;6.556;2022-11-20T05:11:00;24.83;;;14.57;;
52742;SDS011;55583;53.012;6.556;2022-11-20T05:13:27;23.33;;;12.63;;
52742;SDS011;55583;53.012;6.556;2022-11-20T05:15:52;26.60;;;13.63;;
52742;SDS011;55583;53.012;6.556;2022-11-20T05:18:18;24.60;;;14.60;;
52742;SDS011;55583;53.012;6.556;2022-11-20T05:20:44;22.45;;;12.48;;
52742;SDS011;55583;53.012;6.556;2022-11-20T05:23:09;23.40;;;14.07;;
52742;SDS011;55583;53.012;6.556;2022-11-20T05:25:35;20.98;;;12.80;;
52742;SDS011;55583;53.012;6.556;2022-11-20T05:28:00;22.73;;;13.52;;
52742;SDS011;55583;53.012;6.556;2022-11-20T05:30:26;20.13;;;13.30;;
52742;SDS011;55583;53.012;6.556;2022-11-20T05:32:52;25.38;;;13.50;;
52742;SDS011;55583;53.012;6.556;2022-11-20T05:35:17;24.05;;;13.88;;
52742;SDS011;55583;53.012;6.556;2022-11-20T05:37:43;21.73;;;13.43;;
52742;SDS011;55583;53.012;6.556;2022-11-20T05:40:08;23.35;;;12.75;;
52742;SDS011;55583;53.012;6.556;2022-11-20T05:42:35;23.17;;;14.13;;
52742;SDS011;55583;53.012;6.556;2022-11-20T05:45:01;23.75;;;12.73;;
52742;SDS011;55583;53.012;6.556;2022-11-20T05:47:32;20.05;;;12.82;;
52742;SDS011;55583;53.012;6.556;2022-11-20T05:50:00;20.67;;;12.30;;
52742;SDS011;55583;53.012;6.556;2022-11-20T05:52:29;21.70;;;12.55;;
52742;SDS011;55583;53.012;6.556;2022-11-20T05:54:55;23.38;;;12.65;;
52742;SDS011;55583;53.012;6.556;2022-11-20T05:57:20;30.17;;;14.55;;
52742;SDS011;55583;53.012;6.556;2022-11-20T05:59:46;20.40;;;12.27;;
52742;SDS011;55583;53.012;6.556;2022-11-20T06:02:11;26.63;;;15.48;;
52742;SDS011;55583;53.012;6.556;2022-11-20T06:04:37;24.42;;;13.20;;
52742;SDS011;55583;53.012;6.556;2022-11-20T06:07:04;24.63;;;12.85;;
52742;SDS011;55583;53.012;6.556;2022-11-20T06:09:30;26.60;;;13.70;;
52742;SDS011;55583;53.012;6.556;2022-11-20T06:11:56;26.20;;;12.93;;
52742;SDS011;55583;53.012;6.556;2022-11-20T06:14:21;21.48;;;12.93;;
52742;SDS011;55583;53.012;6.556;2022-11-20T06:16:47;22.42;;;12.70;;
52742;SDS011;55583;53.012;6.556;2022-11-20T06:19:12;19.42;;;12.85;;
52742;SDS011;55583;53.012;6.556;2022-11-20T06:21:38;22.88;;;13.77;;
52742;SDS011;55583;53.012;6.556;2022-11-20T06:24:04;27.73;;;13.70;;
52742;SDS011;55583;53.012;6.556;2022-11-20T06:26:30;22.10;;;12.20;;
52742;SDS011;55583;53.012;6.556;2022-11-20T06:28:56;24.25;;;13.38;;
52742;SDS011;55583;53.012;6.556;2022-11-20T06:31:22;23.48;;;13.50;;
52742;SDS011;55583;53.012;6.556;2022-11-20T06:33:49;19.90;;;12.82;;
52742;SDS011;55583;53.012;6.556;2022-11-20T06:36:16;27.50;;;12.25;;
52742;SDS011;55583;53.012;6.556;2022-11-20T06:38:42;19.42;;;11.95;;
52742;SDS011;55583;53.012;6.556;2022-11-20T06:41:12;22.13;;;11.90;;
52742;SDS011;55583;53.012;6.556;2022-11-20T06:43:39;21.58;;;12.43;;
52742;SDS011;55583;53.012;6.556;2022-11-20T06:46:05;19.05;;;12.27;;
52742;SDS011;55583;53.012;6.556;2022-11-20T06:48:31;22.27;;;13.27;;
52742;SDS011;55583;53.012;6.556;2022-11-20T06:50:57;22.02;;;12.77;;
52742;SDS011;55583;53.012;6.556;2022-11-20T06:53:23;19.30;;;12.07;;
52742;SDS011;55583;53.012;6.556;2022-11-20T06:55:49;18.48;;;12.07;;
52742;SDS011;55583;53.012;6.556;2022-11-20T06:58:16;23.58;;;12.15;;
52742;SDS011;55583;53.012;6.556;2022-11-20T07:00:42;22.45;;;11.77;;
52742;SDS011;55583;53.012;6.556;2022-11-20T07:03:09;21.33;;;11.93;;
52742;SDS011;55583;53.012;6.556;2022-11-20T07:05:35;20.30;;;11.70;;
52742;SDS011;55583;53.012;6.556;2022-11-20T07:08:02;21.20;;;12.35;;
52742;SDS011;55583;53.012;6.556;2022-11-20T07:10:28;18.65;;;11.70;;
52742;SDS011;55583;53.012;6.556;2022-11-20T07:12:54;19.85;;;11.43;;
52742;SDS011;55583;53.012;6.556;2022-11-20T07:15:20;20.33;;;11.27;;
52742;SDS011;55583;53.012;6.556;2022-11-20T07:17:47;20.45;;;11.82;;
52742;SDS011;55583;53.012;6.556;2022-11-20T07:20:13;22.38;;;12.35;;
52742;SDS011;55583;53.012;6.556;2022-11-20T07:22:39;20.90;;;11.80;;
52742;SDS011;55583;53.012;6.556;2022-11-20T07:25:05;15.43;;;10.50;;
52742;SDS011;55583;53.012;6.556;2022-11-20T07:27:32;19.83;;;11.43;;
52742;SDS011;55583;53.012;6.556;2022-11-20T07:29:57;21.58;;;12.65;;
52742;SDS011;55583;53.012;6.556;2022-11-20T07:32:23;18.80;;;11.23;;
52742;SDS011;55583;53.012;6.556;2022-11-20T07:34:49;20.88;;;11.80;;
52742;SDS011;55583;53.012;6.556;2022-11-20T07:37:14;20.88;;;11.43;;
52742;SDS011;55583;53.012;6.556;2022-11-20T07:39:40;16.73;;;10.35;;
52742;SDS011;55583;53.012;6.556;2022-11-20T07:42:07;18.73;;;11.15;;
52742;SDS011;55583;53.012;6.556;2022-11-20T07:44:33;18.40;;;11.52;;
52742;SDS011;55583;53.012;6.556;2022-11-20T07:46:59;22.10;;;11.80;;
52742;SDS011;55583;53.012;6.556;2022-11-20T07:49:24;19.05;;;11.32;;
52742;SDS011;55583;53.012;6.556;2022-11-20T07:51:50;19.15;;;11.07;;
52742;SDS011;55583;53.012;6.556;2022-11-20T07:54:18;18.17;;;10.75;;
52742;SDS011;55583;53.012;6.556;2022-11-20T07:56:44;18.33;;;11.35;;
52742;SDS011;55583;53.012;6.556;2022-11-20T07:59:09;17.65;;;11.52;;
52742;SDS011;55583;53.012;6.556;2022-11-20T08:01:36;18.08;;;11.00;;
52742;SDS011;55583;53.012;6.556;2022-11-20T08:04:03;17.23;;;10.48;;
52742;SDS011;55583;53.012;6.556;2022-11-20T08:06:28;20.00;;;10.93;;
52742;SDS011;55583;53.012;6.556;2022-11-20T08:08:54;16.92;;;10.40;;
52742;SDS011;55583;53.012;6.556;2022-11-20T08:11:19;22.50;;;11.25;;
52742;SDS011;55583;53.012;6.556;2022-11-20T08:14:03;22.15;;;11.73;;
52742;SDS011;55583;53.012;6.556;2022-11-20T08:16:39;18.98;;;11.65;;
52742;SDS011;55583;53.012;6.556;2022-11-20T08:19:05;19.50;;;11.05;;
52742;SDS011;55583;53.012;6.556;2022-11-20T08:21:31;16.50;;;10.73;;
52742;SDS011;55583;53.012;6.556;2022-11-20T08:23:57;16.63;;;10.60;;
52742;SDS011;55583;53.012;6.556;2022-11-20T08:26:23;18.27;;;11.57;;
52742;SDS011;55583;53.012;6.556;2022-11-20T08:28:52;19.63;;;11.38;;
52742;SDS011;55583;53.012;6.556;2022-11-20T08:31:19;18.52;;;9.90;;
52742;SDS011;55583;53.012;6.556;2022-11-20T08:33:45;16.30;;;10.73;;
52742;SDS011;55583;53.012;6.556;2022-11-20T08:36:11;15.55;;;9.73;;
52742;SDS011;55583;53.012;6.556;2022-11-20T08:38:37;19.70;;;10.63;;
52742;SDS011;55583;53.012;6.556;2022-11-20T08:41:03;18.55;;;10.68;;
52742;SDS011;55583;53.012;6.556;2022-11-20T08:43:48;18.20;;;9.90;;
52742;SDS011;55583;53.012;6.556;2022-11-20T08:46:15;16.23;;;9.57;;
52742;SDS011;55583;53.012;6.556;2022-11-20T08:48:41;16.65;;;9.23;;
52742;SDS011;55583;53.012;6.556;2022-11-20T08:51:07;18.63;;;10.90;;
52742;SDS011;55583;53.012;6.556;2022-11-20T08:53:33;15.68;;;9.13;;
52742;SDS011;55583;53.012;6.556;2022-11-20T08:55:58;15.45;;;10.27;;
52742;SDS011;55583;53.012;6.556;2022-11-20T08:58:24;15.27;;;8.70;;
52742;SDS011;55583;53.012;6.556;2022-11-20T09:00:50;15.73;;;10.18;;
52742;SDS011;55583;53.012;6.556;2022-11-20T09:03:16;17.50;;;9.93;;
52742;SDS011;55583;53.012;6.556;2022-11-20T09:05:41;14.98;;;9.52;;
52742;SDS011;55583;53.012;6.556;2022-11-20T09:08:07;14.63;;;9.73;;
52742;SDS011;55583;53.012;6.556;2022-11-20T09:10:33;16.40;;;9.75;;
52742;SDS011;55583;53.012;6.556;2022-11-20T09:12:59;14.15;;;9.15;;
52742;SDS011;55583;53.012;6.556;2022-11-20T09:15:25;15.23;;;9.60;;
52742;SDS011;55583;53.012;6.556;2022-11-20T09:17:54;17.42;;;10.95;;
52742;SDS011;55583;53.012;6.556;2022-11-20T09:20:21;17.25;;;10.50;;
52742;SDS011;55583;53.012;6.556;2022-11-20T09:22:47;15.57;;;9.98;;
52742;SDS011;55583;53.012;6.556;2022-11-20T09:25:13;15.70;;;9.52;;
52742;SDS011;55583;53.012;6.556;2022-11-20T09:27:39;16.10;;;10.07;;
52742;SDS011;55583;53.012;6.556;2022-11-20T09:30:06;15.55;;;9.40;;
52742;SDS011;55583;53.012;6.556;2022-11-20T09:32:32;16.65;;;10.20;;
52742;SDS011;55583;53.012;6.556;2022-11-20T09:34:58;18.75;;;10.18;;
52742;SDS011;55583;53.012;6.556;2022-11-20T09:37:23;14.00;;;9.57;;
52742;SDS011;55583;53.012;6.556;2022-11-20T09:39:49;16.17;;;10.57;;
52742;SDS011;55583;53.012;6.556;2022-11-20T09:42:18;14.43;;;9.68;;
52742;SDS011;55583;53.012;6.556;2022-11-20T09:45:05;14.40;;;8.88;;
52742;SDS011;55583;53.012;6.556;2022-11-20T09:47:57;15.10;;;9.93;;
52742;SDS011;55583;53.012;6.556;2022-11-20T09:55:44;19.83;;;10.77;;
52742;SDS011;55583;53.012;6.556;2022-11-20T09:58:25;15.57;;;9.60;;
52742;SDS011;55583;53.012;6.556;2022-11-20T10:06:17;27.27;;;9.07;;
52742;SDS011;55583;53.012;6.556;2022-11-20T10:11:45;16.25;;;9.77;;
52742;SDS011;55583;53.012;6.556;2022-11-20T10:20:07;13.65;;;8.70;;
52742;SDS011;55583;53.012;6.556;2022-11-20T10:22:45;15.05;;;8.95;;
52742;SDS011;55583;53.012;6.556;2022-11-20T10:25:18;17.27;;;10.02;;
52742;SDS011;55583;53.012;6.556;2022-11-20T10:30:42;15.73;;;9.60;;
52742;SDS011;55583;53.012;6.556;2022-11-20T10:33:16;15.02;;;8.82;;
52742;SDS011;55583;53.012;6.556;2022-11-20T10:35:52;18.45;;;9.10;;
52742;SDS011;55583;53.012;6.556;2022-11-20T10:38:21;13.98;;;9.18;;
52742;SDS011;55583;53.012;6.556;2022-11-20T10:40:57;11.23;;;8.02;;
52742;SDS011;55583;53.012;6.556;2022-11-20T10:43:44;12.70;;;8.15;;
52742;SDS011;55583;53.012;6.556;2022-11-20T10:46:15;13.70;;;8.25;;
52742;SDS011;55583;53.012;6.556;2022-11-20T10:48:45;14.65;;;8.32;;
52742;SDS011;55583;53.012;6.556;2022-11-20T10:51:21;15.00;;;8.40;;
52742;SDS011;55583;53.012;6.556;2022-11-20T10:54:17;14.05;;;8.75;;
52742;SDS011;55583;53.012;6.556;2022-11-20T10:56:52;13.40;;;8.25;;
52742;SDS011;55583;53.012;6.556;2022-11-20T10:59:33;14.48;;;8.88;;
52742;SDS011;55583;53.012;6.556;2022-11-20T11:02:20;13.68;;;9.23;;
52742;SDS011;55583;53.012;6.556;2022-11-20T11:04:50;15.27;;;9.00;;
52742;SDS011;55583;53.012;6.556;2022-11-20T11:07:21;12.07;;;8.48;;
52742;SDS011;55583;53.012;6.556;2022-11-20T11:10:32;10.85;;;7.40;;
52742;SDS011;55583;53.012;6.556;2022-11-20T11:13:22;12.20;;;7.20;;
52742;SDS011;55583;53.012;6.556;2022-11-20T11:15:52;13.32;;;8.27;;
52742;SDS011;55583;53.012;6.556;2022-11-20T11:18:25;13.43;;;7.90;;
52742;SDS011;55583;53.012;6.556;2022-11-20T11:20:57;16.38;;;8.40;;
52742;SDS011;55583;53.012;6.556;2022-11-20T11:23:38;12.20;;;7.82;;
52742;SDS011;55583;53.012;6.556;2022-11-20T11:26:06;10.63;;;7.45;;
52742;SDS011;55583;53.012;6.556;2022-11-20T11:28:52;10.98;;;6.90;;
52742;SDS011;55583;53.012;6.556;2022-11-20T11:31:26;10.68;;;7.03;;
52742;SDS011;55583;53.012;6.556;2022-11-20T11:34:03;10.98;;;7.63;;
52742;SDS011;55583;53.012;6.556;2022-11-20T11:36:32;11.63;;;6.95;;
52742;SDS011;55583;53.012;6.556;2022-11-20T11:39:14;14.90;;;7.97;;
52742;SDS011;55583;53.012;6.556;2022-11-20T11:41:41;10.57;;;7.07;;
52742;SDS011;55583;53.012;6.556;2022-11-20T11:44:19;11.38;;;7.20;;
52742;SDS011;55583;53.012;6.556;2022-11-20T11:47:21;10.95;;;6.70;;
52742;SDS011;55583;53.012;6.556;2022-11-20T11:50:34;11.30;;;7.47;;
52742;SDS011;55583;53.012;6.556;2022-11-20T11:52:51;9.32;;;6.45;;
52742;SDS011;55583;53.012;6.556;2022-11-20T11:55:40;11.18;;;6.57;;
52742;SDS011;55583;53.012;6.556;2022-11-20T12:06:43;10.63;;;6.45;;
52742;SDS011;55583;53.012;6.556;2022-11-20T12:09:24;11.38;;;6.43;;
52742;SDS011;55583;53.012;6.556;2022-11-20T12:12:15;9.13;;;6.05;;
52742;SDS011;55583;53.012;6.556;2022-11-20T12:14:46;11.23;;;6.45;;
52742;SDS011;55583;53.012;6.556;2022-11-20T12:17:14;9.15;;;6.38;;
52742;SDS011;55583;53.012;6.556;2022-11-20T12:19:40;10.45;;;7.32;;
52742;SDS011;55583;53.012;6.556;2022-11-20T12:25:11;9.27;;;6.53;;
52742;SDS011;55583;53.012;6.556;2022-11-20T12:27:59;11.93;;;6.65;;
52742;SDS011;55583;53.012;6.556;2022-11-20T12:30:27;11.00;;;7.43;;
52742;SDS011;55583;53.012;6.556;2022-11-20T12:41:46;12.15;;;7.25;;
52742;SDS011;55583;53.012;6.556;2022-11-20T12:55:16;18.15;;;7.50;;
52742;SDS011;55583;53.012;6.556;2022-11-20T12:58:15;15.48;;;9.65;;
52742;SDS011;55583;53.012;6.556;2022-11-20T13:06:44;13.13;;;8.35;;
52742;SDS011;55583;53.012;6.556;2022-11-20T13:09:14;11.25;;;7.40;;
52742;SDS011;55583;53.012;6.556;2022-11-20T13:12:01;10.32;;;6.85;;
52742;SDS011;55583;53.012;6.556;2022-11-20T13:20:26;9.10;;;5.90;;
52742;SDS011;55583;53.012;6.556;2022-11-20T13:22:53;8.20;;;5.82;;
52742;SDS011;55583;53.012;6.556;2022-11-20T13:27:50;7.45;;;5.55;;
52742;SDS011;55583;53.012;6.556;2022-11-20T13:30:20;11.20;;;6.10;;
52742;SDS011;55583;53.012;6.556;2022-11-20T13:33:06;7.47;;;5.45;;
52742;SDS011;55583;53.012;6.556;2022-11-20T13:35:40;9.82;;;6.07;;
52742;SDS011;55583;53.012;6.556;2022-11-20T13:38:08;10.80;;;6.43;;
52742;SDS011;55583;53.012;6.556;2022-11-20T13:40:36;15.45;;;7.57;;
52742;SDS011;55583;53.012;6.556;2022-11-20T13:43:38;9.77;;;6.55;;
52742;SDS011;55583;53.012;6.556;2022-11-20T13:46:07;14.57;;;8.10;;
52742;SDS011;55583;53.012;6.556;2022-11-20T13:48:41;10.77;;;6.80;;
52742;SDS011;55583;53.012;6.556;2022-11-20T13:51:16;13.25;;;8.52;;
52742;SDS011;55583;53.012;6.556;2022-11-20T14:01:57;14.90;;;9.05;;
52742;SDS011;55583;53.012;6.556;2022-11-20T14:04:30;18.17;;;10.27;;
52742;SDS011;55583;53.012;6.556;2022-11-20T14:07:01;12.88;;;8.60;;
52742;SDS011;55583;53.012;6.556;2022-11-20T14:09:30;14.35;;;8.68;;
52742;SDS011;55583;53.012;6.556;2022-11-20T14:11:58;12.50;;;7.38;;
52742;SDS011;55583;53.012;6.556;2022-11-20T14:14:25;10.60;;;7.30;;
52742;SDS011;55583;53.012;6.556;2022-11-20T14:16:52;12.80;;;8.02;;
52742;SDS011;55583;53.012;6.556;2022-11-20T14:19:31;15.65;;;9.63;;
52742;SDS011;55583;53.012;6.556;2022-11-20T14:22:10;12.82;;;7.53;;
52742;SDS011;55583;53.012;6.556;2022-11-20T14:24:39;12.77;;;8.30;;
52742;SDS011;55583;53.012;6.556;2022-11-20T14:27:04;13.02;;;7.85;;
52742;SDS011;55583;53.012;6.556;2022-11-20T14:29:36;13.23;;;8.32;;
52742;SDS011;55583;53.012;6.556;2022-11-20T14:32:03;16.60;;;8.40;;
52742;SDS011;55583;53.012;6.556;2022-11-20T14:34:30;13.98;;;8.48;;
52742;SDS011;55583;53.012;6.556;2022-11-20T14:36:59;14.20;;;8.73;;
52742;SDS011;55583;53.012;6.556;2022-11-20T14:39:33;14.32;;;9.27;;
52742;SDS011;55583;53.012;6.556;2022-11-20T14:42:00;14.90;;;9.00;;
52742;SDS011;55583;53.012;6.556;2022-11-20T14:44:27;12.27;;;8.63;;
52742;SDS011;55583;53.012;6.556;2022-11-20T14:46:59;15.23;;;9.18;;
52742;SDS011;55583;53.012;6.556;2022-11-20T14:49:26;15.52;;;9.43;;
52742;SDS011;55583;53.012;6.556;2022-11-20T14:54:53;14.00;;;8.52;;
52742;SDS011;55583;53.012;6.556;2022-11-20T14:57:27;12.82;;;8.63;;
52742;SDS011;55583;53.012;6.556;2022-11-20T15:02:38;14.63;;;9.48;;
52742;SDS011;55583;53.012;6.556;2022-11-20T15:05:08;15.02;;;8.93;;
52742;SDS011;55583;53.012;6.556;2022-11-20T15:07:40;18.30;;;10.23;;
52742;SDS011;55583;53.012;6.556;2022-11-20T15:10:27;16.25;;;10.15;;
52742;SDS011;55583;53.012;6.556;2022-11-20T15:12:54;17.20;;;9.73;;
52742;SDS011;55583;53.012;6.556;2022-11-20T15:15:26;19.70;;;10.45;;
52742;SDS011;55583;53.012;6.556;2022-11-20T15:17:57;21.33;;;10.90;;
52742;SDS011;55583;53.012;6.556;2022-11-20T15:20:25;17.60;;;11.10;;
52742;SDS011;55583;53.012;6.556;2022-11-20T15:22:53;18.92;;;10.45;;
52742;SDS011;55583;53.012;6.556;2022-11-20T15:25:19;18.60;;;10.77;;
52742;SDS011;55583;53.012;6.556;2022-11-20T15:27:48;20.98;;;11.70;;
52742;SDS011;55583;53.012;6.556;2022-11-20T15:30:20;18.60;;;11.20;;
52742;SDS011;55583;53.012;6.556;2022-11-20T15:32:46;20.73;;;11.35;;
52742;SDS011;55583;53.012;6.556;2022-11-20T15:35:12;17.70;;;10.88;;
52742;SDS011;55583;53.012;6.556;2022-11-20T15:37:39;14.98;;;9.80;;
52742;SDS011;55583;53.012;6.556;2022-11-20T15:40:05;17.30;;;10.07;;
52742;SDS011;55583;53.012;6.556;2022-11-20T15:42:32;16.38;;;10.38;;
52742;SDS011;55583;53.012;6.556;2022-11-20T15:44:57;16.08;;;9.95;;
52742;SDS011;55583;53.012;6.556;2022-11-20T15:47:27;20.38;;;9.57;;
52742;SDS011;55583;53.012;6.556;2022-11-20T15:49:57;16.42;;;9.88;;
52742;SDS011;55583;53.012;6.556;2022-11-20T15:52:22;17.63;;;11.13;;
52742;SDS011;55583;53.012;6.556;2022-11-20T15:54:48;18.00;;;9.95;;
52742;SDS011;55583;53.012;6.556;2022-11-20T15:57:13;17.70;;;11.27;;
52742;SDS011;55583;53.012;6.556;2022-11-20T15:59:39;18.52;;;10.80;;
52742;SDS011;55583;53.012;6.556;2022-11-20T16:02:13;19.20;;;10.73;;
52742;SDS011;55583;53.012;6.556;2022-11-20T16:04:40;18.25;;;11.65;;
52742;SDS011;55583;53.012;6.556;2022-11-20T16:07:06;22.02;;;12.18;;
52742;SDS011;55583;53.012;6.556;2022-11-20T16:09:32;18.02;;;12.13;;